KLAX Airport (Los Angeles Intl) Information

FAA: LAX - ICAO: KLAX

KLAX Airport Location

State California
County Los Angeles
City Los Angeles
KLAX Airport is 9 miles southwest of Los Angeles, CA.
Latitude 33-56-32.9870N
Longitude 118-24-28.9750W
Elevation 127ft

KLAX Airport METARs

METAR KLAX 200353Z 26009KT 10SM CLR 16/13 A3004 RMK AO2 SLP172 T01610133 $
Altimeter 30.04"
Temperature 16.1°C (61.0°F)
Wind 260° at 9KT
Clouds Skies are clear.
Visibility 10.0mi
Time observed: 2021-10-20T03:53:00Z

KLAX Airport Details

Status Operational
Activation April 1940
Ownership Public
Usage Public
Chart LOS ANGELES
ATC on-site Yes
Beacon schedule sunset-sunrise
Beacon color clear green

KLAX Airport Contacts

Owner CITY OF LOS ANGELES
Owner address 1 WORLD WAY BOX 92216, LOS ANGELES, CA 90009-2216
Owner phone 424-646-5292
Manager STEPHEN SCOTT
Manager address 1200 N STATE STREET, UNIT 501, LOS ANGELES, CA 90033
Manager phone 323-226-4358

KLAX Airport (Los Angeles Intl) Radio Frequencies

KLAX (Airport) Radio Frequencies

UNICOM 122.95
Common traffic advisory frequency (CTAF) N/A